createdAt,value
2023-05-04T00:02:26.710Z,5.40
2023-05-04T00:04:54.505Z,6.00
2023-05-04T00:07:22.033Z,6.57
2023-05-04T00:09:50.973Z,6.03
2023-05-04T00:12:34.320Z,6.53
2023-05-04T00:15:02.349Z,6.05
2023-05-04T00:17:46.458Z,6.13
2023-05-04T00:20:14.333Z,5.35
2023-05-04T00:22:57.299Z,6.18
2023-05-04T00:25:24.656Z,6.10
2023-05-04T00:27:51.967Z,5.88
2023-05-04T00:30:19.873Z,5.18
2023-05-04T00:32:47.836Z,6.50
2023-05-04T00:35:31.923Z,5.90
2023-05-04T00:37:59.309Z,6.00
2023-05-04T00:40:26.689Z,6.18
2023-05-04T00:43:26.543Z,5.25
2023-05-04T00:45:53.983Z,5.28
2023-05-04T00:48:21.382Z,6.05
2023-05-04T00:51:08.573Z,6.35
2023-05-04T00:53:52.414Z,5.90
2023-05-04T00:56:21.740Z,6.57
2023-05-04T00:58:49.105Z,5.38
2023-05-04T01:01:16.452Z,6.07
2023-05-04T01:03:43.791Z,6.22
2023-05-04T01:11:54.260Z,5.43
2023-05-04T01:14:22.583Z,6.05
2023-05-04T01:16:53.574Z,5.45
2023-05-04T01:19:21.333Z,6.10
2023-05-04T01:21:48.958Z,5.63
2023-05-04T01:24:16.594Z,5.50
2023-05-04T01:26:47.046Z,5.22
2023-05-04T01:29:38.437Z,4.57
2023-05-04T01:32:06.725Z,4.88
2023-05-04T01:34:35.828Z,5.95
2023-05-04T01:37:03.221Z,4.88
2023-05-04T01:39:30.595Z,4.82
2023-05-04T01:41:59.157Z,4.10
2023-05-04T01:44:26.560Z,4.25
2023-05-04T01:46:54.067Z,4.43
2023-05-04T01:49:22.763Z,3.88
2023-05-04T01:51:51.008Z,4.22
2023-05-04T01:54:18.303Z,4.53
2023-05-04T01:56:45.696Z,4.13
2023-05-04T01:59:13.094Z,4.68
2023-05-04T02:01:42.096Z,3.65
2023-05-04T02:04:10.674Z,3.72
2023-05-04T02:06:39.480Z,3.88
2023-05-04T02:09:07.285Z,3.63
2023-05-04T02:11:34.611Z,4.30
2023-05-04T02:14:01.800Z,3.67
2023-05-04T02:16:29.332Z,3.13
2023-05-04T02:18:56.714Z,3.40
2023-05-04T02:21:24.073Z,3.45
2023-05-04T02:23:51.427Z,3.15
2023-05-04T02:26:18.730Z,3.10
2023-05-04T02:28:46.090Z,3.13
2023-05-04T02:31:13.507Z,2.90
2023-05-04T02:33:41.165Z,3.72
2023-05-04T02:36:09.344Z,3.60
2023-05-04T02:38:36.736Z,2.83
2023-05-04T02:41:04.472Z,3.40
2023-05-04T02:43:31.856Z,3.15
2023-05-04T02:46:00.471Z,3.60
2023-05-04T02:48:27.882Z,2.92
2023-05-04T02:50:55.235Z,3.30
2023-05-04T02:53:23.095Z,3.10
2023-05-04T02:55:50.414Z,3.50
2023-05-04T02:58:17.756Z,3.25
2023-05-04T03:00:45.148Z,2.55
2023-05-04T03:03:13.058Z,4.07
2023-05-04T03:05:40.522Z,3.28
2023-05-04T03:08:07.889Z,4.03
2023-05-04T03:10:35.267Z,4.53
2023-05-04T03:13:06.340Z,3.83
2023-05-04T03:15:33.973Z,3.42
2023-05-04T03:18:01.911Z,3.35
2023-05-04T03:20:30.047Z,3.50
2023-05-04T03:22:59.499Z,3.50
2023-05-04T03:25:27.269Z,3.55
2023-05-04T03:27:54.741Z,2.97
2023-05-04T03:30:22.204Z,2.75
2023-05-04T03:32:49.729Z,2.92
2023-05-04T03:35:24.082Z,3.53
2023-05-04T03:37:53.924Z,2.83
2023-05-04T03:40:23.316Z,2.65
2023-05-04T03:45:20.888Z,2.83
2023-05-04T03:47:48.275Z,2.78
2023-05-04T03:50:15.667Z,2.28
2023-05-04T03:52:43.367Z,2.15
2023-05-04T03:55:11.916Z,2.67
2023-05-04T03:57:40.377Z,2.17
2023-05-04T04:00:09.224Z,2.28
2023-05-04T04:02:53.341Z,2.50
2023-05-04T04:05:21.891Z,2.50
2023-05-04T04:07:51.346Z,2.63
2023-05-04T04:10:18.942Z,2.55
2023-05-04T04:12:46.348Z,2.60
2023-05-04T04:15:16.466Z,2.40
2023-05-04T04:17:43.919Z,2.05
2023-05-04T04:20:12.295Z,2.00
2023-05-04T04:22:39.734Z,2.22
2023-05-04T04:25:07.898Z,1.90
2023-05-04T04:27:36.759Z,2.50
2023-05-04T04:30:05.484Z,2.33
2023-05-04T04:32:34.367Z,1.73
2023-05-04T04:35:01.727Z,2.22
2023-05-04T04:37:30.950Z,2.40
2023-05-04T04:39:58.345Z,2.00
2023-05-04T04:42:25.922Z,2.13
2023-05-04T04:44:53.794Z,1.83
2023-05-04T04:47:21.476Z,2.05
2023-05-04T04:49:49.120Z,1.90
2023-05-04T04:52:17.539Z,1.70
2023-05-04T04:54:45.678Z,1.77
2023-05-04T04:57:13.605Z,1.55
2023-05-04T04:59:41.289Z,2.20
2023-05-04T05:02:09.938Z,1.75
2023-05-04T05:04:40.606Z,1.92
2023-05-04T05:07:12.322Z,1.58
2023-05-04T05:12:06.868Z,1.55
2023-05-04T05:14:35.410Z,1.88
2023-05-04T05:17:06.518Z,1.50
2023-05-04T05:19:37.473Z,1.63
2023-05-04T05:22:05.260Z,1.45
2023-05-04T05:24:32.693Z,1.50
2023-05-04T05:27:00.730Z,1.40
2023-05-04T05:29:28.176Z,1.25
2023-05-04T05:31:55.577Z,1.40
2023-05-04T05:34:23.291Z,1.10
2023-05-04T05:36:50.663Z,1.50
2023-05-04T05:39:18.013Z,1.35
2023-05-04T05:41:45.460Z,1.13
2023-05-04T05:44:13.253Z,0.88
2023-05-04T05:46:40.894Z,1.05
2023-05-04T05:49:10.949Z,0.73
2023-05-04T05:51:38.608Z,0.80
2023-05-04T05:54:06.251Z,0.88
2023-05-04T05:56:33.684Z,0.60
2023-05-04T05:59:01.271Z,0.70
2023-05-04T06:01:28.907Z,0.75
2023-05-04T06:03:56.414Z,0.50
2023-05-04T06:06:23.956Z,0.52
2023-05-04T06:08:51.417Z,0.75
2023-05-04T06:11:18.805Z,1.05
2023-05-04T06:13:46.531Z,0.63
2023-05-04T06:16:14.760Z,0.68
2023-05-04T06:18:42.182Z,0.80
2023-05-04T06:21:09.667Z,0.43
2023-05-04T06:23:37.420Z,0.47
2023-05-04T06:26:07.958Z,0.40
2023-05-04T06:28:35.734Z,0.30
2023-05-04T06:31:03.930Z,0.52
2023-05-04T06:33:31.399Z,0.60
2023-05-04T06:35:58.847Z,0.50
2023-05-04T06:38:26.286Z,0.40
2023-05-04T06:40:53.878Z,0.68
2023-05-04T06:43:21.288Z,0.38
2023-05-04T06:45:48.650Z,0.50
2023-05-04T06:48:16.006Z,0.60
2023-05-04T06:50:43.395Z,0.50
2023-05-04T06:53:12.040Z,0.80
2023-05-04T06:55:39.522Z,0.40
2023-05-04T06:58:07.259Z,0.70
2023-05-04T07:00:35.668Z,0.70
2023-05-04T07:03:03.276Z,0.50
2023-05-04T07:05:30.724Z,0.40
2023-05-04T07:07:59.253Z,0.40
2023-05-04T07:10:26.652Z,0.65
2023-05-04T07:12:54.197Z,0.50
2023-05-04T07:15:21.905Z,0.32
2023-05-04T07:17:50.248Z,0.40
2023-05-04T07:20:17.771Z,0.40
2023-05-04T07:22:45.249Z,0.40
2023-05-04T07:25:12.618Z,0.50
2023-05-04T07:27:41.603Z,0.30
2023-05-04T07:30:09.132Z,0.50
2023-05-04T07:32:36.514Z,0.57
2023-05-04T07:35:04.056Z,0.32
2023-05-04T07:37:31.901Z,0.43
2023-05-04T07:40:00.649Z,0.63
2023-05-04T07:42:29.276Z,0.30
2023-05-04T07:44:56.591Z,0.60
2023-05-04T07:47:24.715Z,0.43
2023-05-04T07:49:52.188Z,0.38
2023-05-04T07:52:19.563Z,0.32
2023-05-04T07:54:47.089Z,0.60
2023-05-04T07:57:14.413Z,0.52
2023-05-04T07:59:41.720Z,0.47
2023-05-04T08:02:09.316Z,0.40
2023-05-04T08:04:36.929Z,0.50
2023-05-04T08:07:04.305Z,0.47
2023-05-04T08:09:31.609Z,0.32
2023-05-04T08:11:58.934Z,0.32
2023-05-04T08:14:26.275Z,0.95
2023-05-04T08:16:53.625Z,0.50
2023-05-04T08:19:20.925Z,0.43
2023-05-04T08:21:48.715Z,0.68
2023-05-04T08:24:17.622Z,0.50
2023-05-04T08:26:55.625Z,0.43
2023-05-04T08:29:27.337Z,0.57
2023-05-04T08:31:57.021Z,0.60
2023-05-04T08:34:24.456Z,0.70
2023-05-04T08:36:53.020Z,0.50
2023-05-04T08:39:20.689Z,0.40
2023-05-04T08:41:48.161Z,0.52
2023-05-04T08:44:18.007Z,0.45
2023-05-04T08:46:52.722Z,0.60
2023-05-04T08:49:21.003Z,0.60
2023-05-04T08:51:50.385Z,0.30
2023-05-04T08:54:18.589Z,0.40
2023-05-04T08:56:47.391Z,0.50
2023-05-04T08:59:20.502Z,0.20
2023-05-04T09:01:53.673Z,0.40
2023-05-04T09:04:21.454Z,0.30
2023-05-04T09:06:48.936Z,0.30
2023-05-04T09:09:16.545Z,0.47
2023-05-04T09:11:44.533Z,0.40
2023-05-04T09:14:11.978Z,0.32
2023-05-04T09:16:39.667Z,0.50
2023-05-04T09:19:17.993Z,0.47
2023-05-04T09:21:45.331Z,0.50
2023-05-04T09:24:12.933Z,0.40
2023-05-04T09:26:40.319Z,0.40
2023-05-04T09:29:15.743Z,0.50
2023-05-04T09:31:47.764Z,0.50
2023-05-04T09:34:15.694Z,0.80
2023-05-04T09:36:43.688Z,0.50
2023-05-04T09:39:13.297Z,0.60
2023-05-04T09:41:42.068Z,0.50
2023-05-04T09:44:28.211Z,0.50
2023-05-04T09:46:58.461Z,0.60
2023-05-04T09:49:34.764Z,0.50
2023-05-04T09:52:03.773Z,0.60
2023-05-04T09:54:35.095Z,0.88
2023-05-04T09:59:38.442Z,0.50
2023-05-04T10:02:14.411Z,0.38
2023-05-04T10:04:49.558Z,0.65
2023-05-04T10:07:17.570Z,0.57
2023-05-04T10:09:45.126Z,0.55
2023-05-04T10:12:12.504Z,0.50
2023-05-04T10:14:40.240Z,0.70
2023-05-04T10:20:01.223Z,0.70
2023-05-04T10:31:42.626Z,0.68
2023-05-04T10:34:10.837Z,0.70
2023-05-04T10:36:40.129Z,0.68
2023-05-04T10:39:24.555Z,0.90
2023-05-04T10:42:08.392Z,0.70
2023-05-04T10:44:38.469Z,1.17
2023-05-04T10:47:10.737Z,0.73
2023-05-04T10:49:38.260Z,0.80
2023-05-04T10:52:08.216Z,0.80
2023-05-04T10:54:37.811Z,1.10
2023-05-04T10:57:09.562Z,0.90
2023-05-04T10:59:38.146Z,0.80
2023-05-04T11:02:06.370Z,0.80
2023-05-04T11:04:34.572Z,0.80
2023-05-04T11:07:06.561Z,0.65
2023-05-04T11:09:37.768Z,1.08
2023-05-04T11:12:05.966Z,0.75
2023-05-04T11:14:38.117Z,0.70
2023-05-04T11:17:26.183Z,0.80
2023-05-04T11:19:55.493Z,0.82
2023-05-04T11:22:23.227Z,0.70
2023-05-04T11:24:50.810Z,0.57
2023-05-04T11:27:27.834Z,0.63
2023-05-04T11:29:57.954Z,1.00
2023-05-04T11:32:43.947Z,0.70
2023-05-04T11:35:16.673Z,1.33
2023-05-04T11:37:45.247Z,0.90
2023-05-04T11:40:15.452Z,0.82
2023-05-04T11:42:43.588Z,1.17
2023-05-04T11:47:56.896Z,0.52
2023-05-04T11:50:25.052Z,0.57
2023-05-04T11:52:52.880Z,0.63
2023-05-04T11:55:29.755Z,0.75
2023-05-04T11:57:58.992Z,0.50
2023-05-04T12:00:40.319Z,0.63
2023-05-04T12:03:13.307Z,0.90
2023-05-04T12:08:31.782Z,0.80
2023-05-04T12:14:14.254Z,0.60
2023-05-04T12:16:43.353Z,0.55
2023-05-04T12:19:13.074Z,0.63
2023-05-04T12:21:59.101Z,0.52
2023-05-04T12:24:27.899Z,0.57
2023-05-04T12:26:55.298Z,0.75
2023-05-04T12:29:22.708Z,0.60
2023-05-04T12:31:50.364Z,0.70
2023-05-04T12:34:17.819Z,0.75
2023-05-04T12:36:45.398Z,0.50
2023-05-04T12:39:12.990Z,0.50
2023-05-04T12:41:40.760Z,0.43
2023-05-04T12:44:09.423Z,0.52
2023-05-04T12:46:37.560Z,0.82
2023-05-04T12:49:05.074Z,0.73
2023-05-04T12:51:32.694Z,0.60
2023-05-04T12:54:00.043Z,0.52
2023-05-04T12:56:27.480Z,0.63
2023-05-04T12:58:55.009Z,0.57
2023-05-04T13:01:22.485Z,0.82
2023-05-04T13:03:49.897Z,0.85
2023-05-04T13:06:17.281Z,0.85
2023-05-04T13:08:44.797Z,0.82
2023-05-04T13:11:12.112Z,0.50
2023-05-04T13:13:39.785Z,0.47
2023-05-04T13:16:07.379Z,0.75
2023-05-04T13:18:34.756Z,0.60
2023-05-04T13:21:02.062Z,0.63
2023-05-04T13:23:29.626Z,0.68
2023-05-04T13:25:57.058Z,0.65
2023-05-04T13:28:24.441Z,0.57
2023-05-04T13:30:52.305Z,0.70
2023-05-04T13:33:29.550Z,0.63
2023-05-04T13:35:58.652Z,0.80
2023-05-04T13:38:27.274Z,0.70
2023-05-04T13:40:55.434Z,0.70
2023-05-04T13:43:22.845Z,0.50
2023-05-04T13:45:50.526Z,0.77
2023-05-04T13:48:18.391Z,1.08
2023-05-04T13:50:46.928Z,0.70
2023-05-04T13:53:19.522Z,0.73
2023-05-04T13:55:47.678Z,0.68
2023-05-04T13:58:15.226Z,0.90
2023-05-04T14:00:44.814Z,0.73
2023-05-04T14:03:13.041Z,0.70
2023-05-04T14:05:40.406Z,0.50
2023-05-04T14:08:07.921Z,0.68
2023-05-04T14:10:37.471Z,0.50
2023-05-04T14:13:05.295Z,0.85
2023-05-04T14:15:33.102Z,0.73
2023-05-04T14:18:00.543Z,0.50
2023-05-04T14:20:27.974Z,0.65
2023-05-04T14:22:55.321Z,0.65
2023-05-04T14:25:22.750Z,0.50
2023-05-04T14:27:50.188Z,0.70
2023-05-04T14:30:17.600Z,0.43
2023-05-04T14:32:45.019Z,0.70
2023-05-04T14:35:12.800Z,0.70
2023-05-04T14:37:40.738Z,0.50
2023-05-04T14:40:11.333Z,0.80
2023-05-04T14:42:40.956Z,0.55
2023-05-04T14:45:10.677Z,0.50
2023-05-04T14:47:39.370Z,0.50
2023-05-04T14:50:10.509Z,0.85
2023-05-04T14:52:39.366Z,0.68
2023-05-04T14:55:07.166Z,0.50
2023-05-04T14:57:34.728Z,0.70
2023-05-04T15:00:08.007Z,0.52
2023-05-04T15:02:36.226Z,0.77
2023-05-04T15:05:03.800Z,0.55
2023-05-04T15:07:31.490Z,0.60
2023-05-04T15:09:58.868Z,0.73
2023-05-04T15:12:26.642Z,0.73
2023-05-04T15:14:54.041Z,0.50
2023-05-04T15:17:21.371Z,0.55
2023-05-04T15:19:48.814Z,0.70
2023-05-04T15:22:16.160Z,0.50
2023-05-04T15:24:45.030Z,0.52
2023-05-04T15:27:12.363Z,0.73
2023-05-04T15:29:39.702Z,0.60
2023-05-04T15:32:07.080Z,1.10
2023-05-04T15:34:34.460Z,0.82
2023-05-04T15:37:01.801Z,1.27
2023-05-04T15:39:29.113Z,1.42
2023-05-04T15:41:56.470Z,1.55
2023-05-04T15:44:24.533Z,1.77
2023-05-04T15:46:51.940Z,1.70
2023-05-04T15:49:19.600Z,1.73
2023-05-04T15:51:46.933Z,2.25
2023-05-04T15:54:14.211Z,2.17
2023-05-04T15:56:42.080Z,1.77
2023-05-04T15:59:10.292Z,2.30
2023-05-04T16:01:40.226Z,2.50
2023-05-04T16:04:08.186Z,2.13
2023-05-04T16:06:41.077Z,4.10
2023-05-04T16:09:11.363Z,3.10
2023-05-04T16:11:38.820Z,2.97
2023-05-04T16:14:06.163Z,3.38
2023-05-04T16:16:33.620Z,3.13
2023-05-04T16:19:01.204Z,2.95
2023-05-04T16:21:29.814Z,3.25
2023-05-04T16:23:57.529Z,2.55
2023-05-04T16:26:25.154Z,2.22
2023-05-04T16:28:52.608Z,2.63
2023-05-04T16:31:20.081Z,2.20
2023-05-04T16:33:48.403Z,1.90
2023-05-04T16:36:16.384Z,1.70
2023-05-04T16:38:43.896Z,1.83
2023-05-04T16:41:11.492Z,2.40
2023-05-04T16:43:38.925Z,2.42
2023-05-04T16:46:06.296Z,2.70
2023-05-04T16:48:33.718Z,3.00
2023-05-04T16:51:01.120Z,2.83
2023-05-04T16:53:28.556Z,2.15
2023-05-04T16:55:55.934Z,2.22
2023-05-04T16:58:23.518Z,1.75
2023-05-04T17:00:51.101Z,1.60
2023-05-04T17:03:18.682Z,1.40
2023-05-04T17:05:46.251Z,1.40
2023-05-04T17:08:13.848Z,1.23
2023-05-04T17:10:41.437Z,1.60
2023-05-04T17:13:08.900Z,1.60
2023-05-04T17:15:36.307Z,3.60
2023-05-04T17:18:04.791Z,2.03
2023-05-04T17:20:32.314Z,2.20
2023-05-04T17:23:00.229Z,4.63
2023-05-04T17:25:28.059Z,4.82
2023-05-04T17:27:55.499Z,5.80
2023-05-04T17:30:23.028Z,4.32
2023-05-04T17:32:51.391Z,4.25
2023-05-04T17:35:25.336Z,2.78
2023-05-04T17:37:58.031Z,2.13
2023-05-04T17:40:28.129Z,3.05
2023-05-04T17:42:56.568Z,1.63
2023-05-04T17:45:24.202Z,1.83
2023-05-04T17:47:56.797Z,2.60
2023-05-04T17:50:25.918Z,4.65
2023-05-04T17:52:55.727Z,2.10
2023-05-04T17:55:25.068Z,3.42
2023-05-04T17:57:53.976Z,3.55
2023-05-04T18:00:21.811Z,3.40
2023-05-04T18:02:49.687Z,3.08
2023-05-04T18:05:17.674Z,5.28
2023-05-04T18:07:45.559Z,4.13
2023-05-04T18:10:13.624Z,4.32
2023-05-04T18:12:41.568Z,5.00
2023-05-04T18:15:09.859Z,5.85
2023-05-04T18:17:38.754Z,5.15
2023-05-04T18:20:09.254Z,6.30
2023-05-04T18:22:37.178Z,5.75
2023-05-04T18:25:05.029Z,5.50
2023-05-04T18:27:34.367Z,5.68
2023-05-04T18:30:02.321Z,4.60
2023-05-04T18:32:47.039Z,4.10
2023-05-04T18:35:14.437Z,4.43
2023-05-04T18:37:41.877Z,4.07
2023-05-04T18:40:10.992Z,4.45
2023-05-04T18:42:39.877Z,3.78
2023-05-04T18:45:08.141Z,3.47
2023-05-04T18:47:35.857Z,1.45
2023-05-04T18:50:03.441Z,0.80
2023-05-04T18:52:32.696Z,1.20
2023-05-04T18:55:00.477Z,0.93
2023-05-04T18:57:29.509Z,1.02
2023-05-04T18:59:57.803Z,0.98
2023-05-04T19:02:26.314Z,1.25
2023-05-04T19:04:53.715Z,0.90
2023-05-04T19:07:22.508Z,1.30
2023-05-04T19:09:49.944Z,1.10
2023-05-04T19:12:17.636Z,1.13
2023-05-04T19:14:45.355Z,1.15
2023-05-04T19:17:14.958Z,0.68
2023-05-04T19:19:42.259Z,0.60
2023-05-04T19:22:11.758Z,0.52
2023-05-04T19:24:39.312Z,0.73
2023-05-04T19:27:09.582Z,0.80
2023-05-04T19:29:39.561Z,0.85
2023-05-04T19:32:24.364Z,0.63
2023-05-04T19:34:53.065Z,1.10
2023-05-04T19:37:20.900Z,0.75
2023-05-04T19:39:48.682Z,0.80
2023-05-04T19:42:16.584Z,0.93
2023-05-04T19:44:44.016Z,0.60
2023-05-04T19:47:11.462Z,0.57
2023-05-04T19:49:39.094Z,1.58
2023-05-04T19:52:07.282Z,1.33
2023-05-04T19:54:35.275Z,1.00
2023-05-04T19:57:02.634Z,1.35
2023-05-04T19:59:30.087Z,0.93
2023-05-04T20:01:59.297Z,1.45
2023-05-04T20:04:26.684Z,1.08
2023-05-04T20:06:54.503Z,0.73
2023-05-04T20:09:22.148Z,1.27
2023-05-04T20:11:49.482Z,0.73
2023-05-04T20:14:16.932Z,1.17
2023-05-04T20:16:44.363Z,0.70
2023-05-04T20:19:11.829Z,0.55
2023-05-04T20:21:39.236Z,0.90
2023-05-04T20:24:06.875Z,1.00
2023-05-04T20:26:34.298Z,0.50
2023-05-04T20:29:01.709Z,0.90
2023-05-04T20:31:29.128Z,1.13
2023-05-04T20:33:56.622Z,1.38
2023-05-04T20:36:24.353Z,1.30
2023-05-04T20:38:51.781Z,1.10
2023-05-04T20:41:19.136Z,1.00
2023-05-04T20:43:46.928Z,0.90
2023-05-04T20:46:14.414Z,0.70
2023-05-04T20:48:41.725Z,1.05
2023-05-04T20:51:14.548Z,1.00
2023-05-04T20:53:42.860Z,1.15
2023-05-04T20:56:10.480Z,0.70
2023-05-04T20:58:37.912Z,0.60
2023-05-04T21:01:06.041Z,0.80
2023-05-04T21:03:34.122Z,0.90
2023-05-04T21:06:02.160Z,0.80
2023-05-04T21:08:29.614Z,0.70
2023-05-04T21:10:56.922Z,0.75
2023-05-04T21:13:24.437Z,0.43
2023-05-04T21:15:51.808Z,0.68
2023-05-04T21:18:19.932Z,1.08
2023-05-04T21:20:47.678Z,0.90
2023-05-04T21:23:15.070Z,0.88
2023-05-04T21:25:42.480Z,0.82
2023-05-04T21:28:09.962Z,0.90
2023-05-04T21:30:42.149Z,0.55
2023-05-04T21:33:09.565Z,0.85
2023-05-04T21:35:36.872Z,0.90
2023-05-04T21:38:04.246Z,0.55
2023-05-04T21:40:32.006Z,0.80
2023-05-04T21:43:00.334Z,1.13
2023-05-04T21:45:28.392Z,0.95
2023-05-04T21:47:55.834Z,1.13
2023-05-04T21:50:23.349Z,1.33
2023-05-04T21:52:50.761Z,1.02
2023-05-04T21:55:18.162Z,0.98
2023-05-04T21:57:45.629Z,0.75
2023-05-04T22:00:17.954Z,1.00
2023-05-04T22:02:45.560Z,0.90
2023-05-04T22:05:13.030Z,1.20
2023-05-04T22:07:40.382Z,1.00
2023-05-04T22:10:08.623Z,0.98
2023-05-04T22:12:36.216Z,1.38
2023-05-04T22:15:03.601Z,0.88
2023-05-04T22:17:32.798Z,0.90
2023-05-04T22:20:00.223Z,1.00
2023-05-04T22:22:27.581Z,1.02
2023-05-04T22:24:55.063Z,1.00
2023-05-04T22:27:22.472Z,0.90
2023-05-04T22:29:49.783Z,0.75
2023-05-04T22:32:17.082Z,0.90
2023-05-04T22:34:44.249Z,1.10
2023-05-04T22:37:12.230Z,0.80
2023-05-04T22:39:39.517Z,1.10
2023-05-04T22:42:06.835Z,0.90
2023-05-04T22:44:34.153Z,1.30
2023-05-04T22:47:01.387Z,0.93
2023-05-04T22:49:28.692Z,1.15
2023-05-04T22:51:55.959Z,1.30
2023-05-04T22:54:23.222Z,1.23
2023-05-04T22:56:51.307Z,0.77
2023-05-04T22:59:18.559Z,1.60
2023-05-04T23:01:45.896Z,1.80
2023-05-04T23:04:13.162Z,1.20
2023-05-04T23:06:40.734Z,1.10
2023-05-04T23:09:07.999Z,1.20
2023-05-04T23:11:35.253Z,1.10
2023-05-04T23:14:02.473Z,1.02
2023-05-04T23:16:29.877Z,1.60
2023-05-04T23:18:57.335Z,1.27
2023-05-04T23:21:24.663Z,1.20
2023-05-04T23:23:52.257Z,1.13
2023-05-04T23:26:19.508Z,1.58
2023-05-04T23:28:46.714Z,1.40
2023-05-04T23:31:14.034Z,1.10
2023-05-04T23:33:41.912Z,1.30
2023-05-04T23:36:09.233Z,1.27
2023-05-04T23:38:36.857Z,0.90
2023-05-04T23:41:04.506Z,0.85
2023-05-04T23:43:32.162Z,0.82
2023-05-04T23:46:02.198Z,1.20
2023-05-04T23:48:30.552Z,0.90
2023-05-04T23:50:59.211Z,1.17
2023-05-04T23:53:26.684Z,1.80
2023-05-04T23:55:59.726Z,1.20
2023-05-04T23:58:28.867Z,1.17
